Time;durP1;ratioP1;P1;durP2;ratioP2;P2;SDS_P1;SDS_P2;PMS_P1;PMS_P2;Temp;Humidity;BMP_temperature;BMP_pressure;BME280_temperature;BME280_humidity;BME280_pressure;Samples;Min_cycle;Max_cycle;Signal;HPM_P1;HPM_P2
2023/03/22 00:00:27;;;;;;;25.63;19.20;;;9.60;99.90;;;;;;5044784;28;20032;-64
2023/03/22 00:02:56;;;;;;;24.50;19.15;;;9.80;99.90;;;;;;5056226;28;20091;-64
2023/03/22 00:05:22;;;;;;;22.60;18.58;;;9.70;99.90;;;;;;5078581;28;20042;-63
2023/03/22 00:07:53;;;;;;;22.48;17.88;;;9.90;99.90;;;;;;5078090;28;20463;-64
2023/03/22 00:10:19;;;;;;;22.60;19.00;;;10.00;99.90;;;;;;5079984;28;20044;-65
2023/03/22 00:12:45;;;;;;;24.23;18.33;;;10.00;99.90;;;;;;5075890;28;20126;-65
2023/03/22 00:15:11;;;;;;;21.00;16.25;;;9.80;99.90;;;;;;5080216;28;20130;-65
2023/03/22 00:17:37;;;;;;;22.48;15.57;;;9.90;99.90;;;;;;5075996;28;20052;-63
2023/03/22 00:20:05;;;;;;;23.25;15.38;;;10.00;99.90;;;;;;5079699;28;20047;-65
2023/03/22 00:22:31;;;;;;;21.73;14.13;;;9.80;99.90;;;;;;5053362;28;20416;-66
2023/03/22 00:24:57;;;;;;;19.60;12.23;;;10.00;99.90;;;;;;5078711;28;20443;-64
2023/03/22 00:27:23;;;;;;;19.38;12.10;;;10.00;99.90;;;;;;5080121;28;20048;-65
2023/03/22 00:29:52;;;;;;;17.65;11.32;;;9.80;99.90;;;;;;5078361;28;20043;-65
2023/03/22 00:32:18;;;;;;;19.73;12.20;;;10.10;99.90;;;;;;5075837;28;20040;-64
2023/03/22 00:34:44;;;;;;;21.30;12.10;;;10.00;99.90;;;;;;5076201;28;20062;-64
2023/03/22 00:37:09;;;;;;;15.98;11.32;;;9.80;99.90;;;;;;5060546;28;20338;-65
2023/03/22 00:39:35;;;;;;;19.60;12.38;;;9.80;99.90;;;;;;5079136;28;20040;-64
2023/03/22 00:42:05;;;;;;;18.00;11.63;;;9.90;99.90;;;;;;5074402;28;20319;-64
2023/03/22 00:44:31;;;;;;;16.13;11.57;;;9.90;99.90;;;;;;5072897;28;20292;-64
2023/03/22 00:46:57;;;;;;;16.42;10.45;;;10.00;99.90;;;;;;5083583;28;20046;-64
2023/03/22 00:49:24;;;;;;;15.05;10.73;;;9.80;99.90;;;;;;5079674;28;20036;-64
2023/03/22 00:51:50;;;;;;;17.58;11.55;;;10.00;99.90;;;;;;5082234;28;20480;-64
2023/03/22 00:54:16;;;;;;;19.15;10.57;;;9.90;99.90;;;;;;5077464;28;20997;-64
2023/03/22 00:56:44;;;;;;;16.20;10.40;;;9.90;99.90;;;;;;5083544;28;20165;-64
2023/03/22 00:59:13;;;;;;;17.25;9.95;;;9.80;99.90;;;;;;5079043;28;20048;-64
2023/03/22 01:01:39;;;;;;;15.18;9.52;;;9.70;99.90;;;;;;5078912;28;20055;-65
2023/03/22 01:04:05;;;;;;;16.42;9.35;;;9.70;99.90;;;;;;5079043;28;20044;-65
2023/03/22 01:06:34;;;;;;;18.80;9.98;;;9.70;99.90;;;;;;5062825;28;20039;-64
2023/03/22 01:09:00;;;;;;;16.17;8.93;;;9.70;99.90;;;;;;5081187;28;20115;-64
2023/03/22 01:11:27;;;;;;;14.88;9.02;;;9.80;99.90;;;;;;5081435;28;20119;-64
2023/03/22 01:13:53;;;;;;;13.10;7.53;;;9.80;99.90;;;;;;5079666;28;20056;-64
2023/03/22 01:16:20;;;;;;;13.82;7.85;;;9.80;99.90;;;;;;5088425;28;20480;-63
2023/03/22 01:18:46;;;;;;;14.77;7.88;;;9.60;99.90;;;;;;5089273;28;20047;-65
2023/03/22 01:21:12;;;;;;;9.90;6.35;;;9.60;99.90;;;;;;5075212;28;20100;-63
2023/03/22 01:23:38;;;;;;;18.02;7.45;;;9.50;99.90;;;;;;5087517;28;20561;-64
2023/03/22 01:26:04;;;;;;;18.52;6.80;;;9.70;80.80;;;;;;5065772;28;20078;-64
2023/03/22 01:28:30;;;;;;;15.07;6.50;;;9.50;99.90;;;;;;5064839;28;20463;-63
2023/03/22 01:31:02;;;;;;;15.38;5.90;;;9.70;99.90;;;;;;5059325;28;20239;-65
2023/03/22 01:33:30;;;;;;;10.82;6.22;;;9.60;99.90;;;;;;5085255;28;20443;-65
2023/03/22 01:35:55;;;;;;;14.80;5.40;;;9.80;99.90;;;;;;5079443;28;20120;-64
2023/03/22 01:38:21;;;;;;;13.50;5.40;;;9.80;99.90;;;;;;5081708;28;20119;-64
2023/03/22 01:40:47;;;;;;;12.40;5.57;;;9.70;94.00;;;;;;5077592;28;20040;-63
2023/03/22 01:43:14;;;;;;;12.88;5.65;;;9.60;64.80;;;;;;5090526;28;20155;-63
2023/03/22 01:45:49;;;;;;;14.50;5.80;;;9.60;51.90;;;;;;5093238;27;20316;-64
2023/03/22 01:48:21;;;;;;;13.75;5.50;;;9.60;99.50;;;;;;5080392;28;20097;-63
2023/03/22 01:51:16;;;;;;;14.73;6.10;;;9.60;93.20;;;;;;5081871;28;20896;-64
2023/03/22 01:53:47;;;;;;;12.30;5.25;;;9.40;25.70;;;;;;5077308;28;20038;-65
2023/03/22 01:56:13;;;;;;;13.10;4.53;;;9.60;99.90;;;;;;5062346;28;20393;-66
2023/03/22 01:58:41;;;;;;;14.07;4.50;;;9.40;92.90;;;;;;5082077;28;20043;-66
2023/03/22 02:01:09;;;;;;;12.57;4.47;;;9.60;71.90;;;;;;5064186;28;21225;-65
2023/03/22 02:03:57;;;;;;;9.32;4.40;;;9.50;1.00;;;;;;5070036;28;20063;-66
2023/03/22 02:06:24;;;;;;;12.88;4.03;;;9.50;1.00;;;;;;5080386;28;20127;-66
2023/03/22 02:08:51;;;;;;;12.27;4.05;;;9.40;1.00;;;;;;5058705;28;20071;-66
2023/03/22 02:11:28;;;;;;;8.32;3.50;;;9.50;1.00;;;;;;5081126;28;20123;-66
2023/03/22 02:14:24;;;;;;;8.40;2.85;;;9.40;1.00;;;;;;5081278;28;20647;-65
2023/03/22 02:17:05;;;;;;;10.68;2.95;;;9.50;99.90;;;;;;5080122;28;20476;-63
2023/03/22 02:19:41;;;;;;;10.57;2.85;;;9.50;1.00;;;;;;5063239;28;20036;-64
2023/03/22 02:22:26;;;;;;;8.02;2.60;;;9.60;99.90;;;;;;5080845;28;20293;-64
2023/03/22 02:25:29;;;;;;;9.88;2.67;;;9.40;99.90;;;;;;5067943;28;20036;-65
2023/03/22 02:28:20;;;;;;;9.20;2.70;;;9.50;99.90;;;;;;5083060;28;20127;-63
2023/03/22 02:30:58;;;;;;;8.40;2.63;;;9.40;99.90;;;;;;5077011;28;20489;-63
2023/03/22 02:33:30;;;;;;;11.40;2.28;;;9.40;99.90;;;;;;5077480;28;20365;-63
2023/03/22 02:36:23;;;;;;;9.40;2.28;;;9.50;99.90;;;;;;5080723;28;20365;-63
2023/03/22 02:39:06;;;;;;;7.20;2.17;;;9.40;99.90;;;;;;5074649;28;20051;-63
2023/03/22 02:41:49;;;;;;;6.03;1.60;;;9.40;99.90;;;;;;5087127;28;20143;-64
2023/03/22 02:44:48;;;;;;;8.40;1.48;;;9.50;99.90;;;;;;5077641;28;20047;-64
2023/03/22 02:47:37;;;;;;;7.70;1.58;;;9.40;99.90;;;;;;5072474;28;20044;-64
2023/03/22 02:50:26;;;;;;;8.70;1.60;;;9.50;99.90;;;;;;5087590;28;20054;-63
2023/03/22 02:53:24;;;;;;;6.05;1.25;;;9.50;99.90;;;;;;5079145;28;20054;-65
2023/03/22 02:56:22;;;;;;;5.90;1.38;;;9.40;99.90;;;;;;5051313;28;20056;-64
2023/03/22 02:58:52;;;;;;;8.20;1.30;;;9.40;99.90;;;;;;5081214;28;20047;-63
2023/03/22 03:01:25;;;;;;;10.00;1.48;;;9.40;99.90;;;;;;5077000;28;20129;-63
2023/03/22 03:03:54;;;;;;;;;;;9.50;99.90;;;;;;5097798;27;20101;-63
2023/03/22 03:06:24;;;;;;;7.85;1.08;;;9.40;99.90;;;;;;5080525;28;20018;-64
2023/03/22 03:08:52;;;;;;;6.65;1.13;;;9.50;99.90;;;;;;5040023;28;20493;-64
2023/03/22 03:11:19;;;;;;;6.63;1.00;;;9.60;99.90;;;;;;5080924;28;20618;-63
2023/03/22 03:13:49;;;;;;;10.23;1.50;;;9.50;99.90;;;;;;5055898;28;20040;-64
2023/03/22 03:16:21;;;;;;;6.63;1.23;;;9.40;99.90;;;;;;5078638;28;20044;-64
2023/03/22 03:19:02;;;;;;;9.25;1.35;;;9.40;99.90;;;;;;5075957;28;20081;-65
2023/03/22 03:21:52;;;;;;;9.30;1.65;;;9.50;99.90;;;;;;5077763;28;20581;-65
2023/03/22 03:24:24;;;;;;;12.57;2.08;;;9.40;99.90;;;;;;5081345;28;20259;-64
2023/03/22 03:27:21;;;;;;;8.02;1.30;;;9.50;99.90;;;;;;5073057;28;20048;-65
2023/03/22 03:30:18;;;;;;;14.45;1.80;;;9.50;99.90;;;;;;5068998;28;20200;-65
2023/03/22 03:32:55;;;;;;;8.10;1.23;;;9.40;99.90;;;;;;5060463;28;20059;-64
2023/03/22 03:35:26;;;;;;;12.23;1.75;;;9.40;99.90;;;;;;5077942;28;20035;-65
2023/03/22 03:37:52;;;;;;;9.25;1.23;;;9.50;99.90;;;;;;5078254;28;20027;-64
2023/03/22 03:40:31;;;;;;;11.57;1.60;;;9.50;99.90;;;;;;5076376;28;20039;-65
2023/03/22 03:43:01;;;;;;;10.68;1.55;;;9.50;99.90;;;;;;5079620;28;20044;-65
2023/03/22 03:45:27;;;;;;;6.57;0.88;;;9.50;99.90;;;;;;5062642;28;20063;-62
2023/03/22 03:47:58;;;;;;;9.80;1.30;;;9.60;99.90;;;;;;5076948;28;20040;-62
2023/03/22 03:50:25;;;;;;;7.65;0.80;;;9.60;99.90;;;;;;5079787;28;20149;-63
2023/03/22 03:52:53;;;;;;;12.93;1.13;;;9.50;99.90;;;;;;5078747;28;20623;-63
2023/03/22 03:55:20;;;;;;;12.75;1.30;;;9.40;99.90;;;;;;5078216;28;20509;-63
2023/03/22 03:57:45;;;;;;;9.27;1.20;;;9.60;99.90;;;;;;5080168;28;20040;-63
2023/03/22 04:00:15;;;;;;;9.77;1.33;;;9.50;99.90;;;;;;5059496;28;20039;-64
2023/03/22 04:02:42;;;;;;;9.63;1.42;;;9.50;99.90;;;;;;5074179;28;20059;-63
2023/03/22 04:05:09;;;;;;;10.27;1.05;;;9.50;99.90;;;;;;5074601;28;20166;-65
2023/03/22 04:07:36;;;;;;;8.88;1.25;;;9.40;99.90;;;;;;5073534;28;20223;-65
2023/03/22 04:10:02;;;;;;;10.05;1.50;;;9.40;99.90;;;;;;5060329;28;20044;-65
2023/03/22 04:12:28;;;;;;;11.95;1.70;;;9.40;99.90;;;;;;5075899;28;20126;-64
2023/03/22 04:14:54;;;;;;;11.63;1.40;;;9.40;99.90;;;;;;5075468;28;20055;-66
2023/03/22 04:17:21;;;;;;;9.63;1.42;;;9.40;99.90;;;;;;5063030;28;20383;-65
2023/03/22 04:19:47;;;;;;;11.02;1.80;;;9.40;99.90;;;;;;5060684;28;20035;-66
2023/03/22 04:22:17;;;;;;;13.88;1.98;;;9.50;99.90;;;;;;5083446;28;20058;-65
2023/03/22 04:24:49;;;;;;;11.18;1.80;;;9.40;99.90;;;;;;5076963;28;20286;-64
2023/03/22 04:27:19;;;;;;;13.43;2.30;;;9.40;99.90;;;;;;5087292;28;20360;-64
2023/03/22 04:29:49;;;;;;;11.60;2.30;;;9.40;99.90;;;;;;5086771;28;20043;-64
2023/03/22 04:32:18;;;;;;;10.80;2.17;;;9.40;99.90;;;;;;5074236;28;20082;-64
2023/03/22 04:34:45;;;;;;;13.13;1.98;;;9.50;99.90;;;;;;5086577;28;20130;-63
2023/03/22 04:37:12;;;;;;;12.27;1.98;;;9.60;99.90;;;;;;5083327;28;20043;-62
2023/03/22 04:39:38;;;;;;;10.10;2.28;;;9.50;99.90;;;;;;5074669;28;20062;-65
2023/03/22 04:42:04;;;;;;;11.05;2.60;;;9.40;99.90;;;;;;5066500;28;20039;-65
2023/03/22 04:44:30;;;;;;;11.18;1.83;;;9.50;99.90;;;;;;5079664;28;20206;-65
2023/03/22 04:46:56;;;;;;;13.25;2.70;;;9.50;99.90;;;;;;5063965;28;20628;-66
2023/03/22 04:49:22;;;;;;;11.43;2.10;;;9.50;99.90;;;;;;5074989;28;20055;-64
2023/03/22 04:51:48;;;;;;;10.38;2.03;;;9.40;99.90;;;;;;5061128;28;20044;-65
2023/03/22 04:54:13;;;;;;;12.30;2.20;;;9.40;99.90;;;;;;5070630;28;20048;-66
2023/03/22 04:56:39;;;;;;;13.52;2.50;;;9.30;99.90;;;;;;5063831;28;20038;-66
2023/03/22 04:59:05;;;;;;;8.80;1.92;;;9.30;99.90;;;;;;5062620;28;20627;-65
2023/03/22 05:01:30;;;;;;;11.52;2.38;;;9.40;99.90;;;;;;5080180;28;20342;-65
2023/03/22 05:03:56;;;;;;;11.43;2.50;;;9.40;99.90;;;;;;5023065;28;20051;-66
2023/03/22 05:06:22;;;;;;;9.38;2.33;;;9.40;99.90;;;;;;5079404;28;20425;-66
2023/03/22 05:08:48;;;;;;;10.82;2.67;;;9.50;99.90;;;;;;5058092;28;20705;-66
2023/03/22 05:11:16;;;;;;;8.82;2.70;;;9.40;99.90;;;;;;5062405;28;20040;-67
2023/03/22 05:13:42;;;;;;;12.10;3.08;;;9.40;99.90;;;;;;5083064;28;20044;-65
2023/03/22 05:16:09;;;;;;;12.55;3.10;;;9.40;99.90;;;;;;5081515;28;20032;-63
2023/03/22 05:18:36;;;;;;;10.63;3.10;;;9.50;99.90;;;;;;5081769;28;20088;-65
2023/03/22 05:21:05;;;;;;;10.63;3.58;;;9.40;99.90;;;;;;5079887;28;20063;-64
2023/03/22 05:23:31;;;;;;;9.98;3.65;;;9.50;99.90;;;;;;5062974;28;20113;-65
2023/03/22 05:25:57;;;;;;;9.02;3.70;;;9.60;99.90;;;;;;5077101;28;20505;-64
2023/03/22 05:28:26;;;;;;;8.00;3.95;;;9.50;99.90;;;;;;5083682;28;20114;-65
2023/03/22 05:30:51;;;;;;;9.40;3.95;;;9.40;99.90;;;;;;5078619;28;20047;-65
2023/03/22 05:33:21;;;;;;;8.82;4.43;;;9.50;99.90;;;;;;5063061;28;20815;-66
2023/03/22 05:35:49;;;;;;;10.55;4.88;;;9.50;99.90;;;;;;5076985;28;20100;-66
2023/03/22 05:38:15;;;;;;;13.23;4.72;;;9.40;99.90;;;;;;5080872;28;20047;-66
2023/03/22 05:40:41;;;;;;;10.75;5.35;;;9.60;99.90;;;;;;5084613;28;20040;-64
2023/03/22 05:43:07;;;;;;;13.15;4.78;;;9.40;99.90;;;;;;5075752;28;20083;-65
2023/03/22 05:45:35;;;;;;;10.52;5.40;;;9.50;99.90;;;;;;5063286;28;20147;-64
2023/03/22 05:48:02;;;;;;;9.88;5.10;;;9.60;99.90;;;;;;5078363;28;20056;-65
2023/03/22 05:50:31;;;;;;;10.65;5.65;;;9.60;99.90;;;;;;5080026;28;20055;-65
2023/03/22 05:52:56;;;;;;;12.05;5.55;;;9.60;99.90;;;;;;5083751;28;20052;-65
2023/03/22 05:55:22;;;;;;;13.38;6.10;;;9.60;99.90;;;;;;5055751;28;20040;-66
2023/03/22 05:57:50;;;;;;;15.88;6.75;;;9.50;99.90;;;;;;5078866;28;20104;-65
2023/03/22 06:00:17;;;;;;;10.85;6.57;;;9.60;99.90;;;;;;5064023;28;20101;-65
2023/03/22 06:02:45;;;;;;;12.63;6.95;;;9.70;99.90;;;;;;5062576;28;20210;-66
2023/03/22 06:05:12;;;;;;;13.88;7.60;;;9.70;99.90;;;;;;5076423;28;20044;-66
2023/03/22 06:07:39;;;;;;;16.60;8.43;;;9.70;99.90;;;;;;5081797;28;20038;-67
2023/03/22 06:10:07;;;;;;;17.92;7.68;;;9.70;99.90;;;;;;5078129;28;20382;-67
2023/03/22 06:12:33;;;;;;;14.68;8.77;;;9.60;99.90;;;;;;5081633;28;20044;-66
2023/03/22 06:14:59;;;;;;;15.48;8.30;;;9.80;99.90;;;;;;5077741;28;20504;-65
2023/03/22 06:17:25;;;;;;;14.98;8.27;;;9.80;99.90;;;;;;5078931;28;20051;-67
2023/03/22 06:19:53;;;;;;;16.65;9.70;;;9.80;99.90;;;;;;5061964;28;20451;-68
2023/03/22 06:22:20;;;;;;;15.63;9.40;;;10.00;99.90;;;;;;5082380;28;20096;-64
2023/03/22 06:24:47;;;;;;;15.48;9.52;;;9.90;99.90;;;;;;5082808;28;20117;-63
2023/03/22 06:27:13;;;;;;;17.90;9.95;;;9.90;99.90;;;;;;5089276;28;20537;-64
2023/03/22 06:29:39;;;;;;;19.08;10.23;;;9.90;99.90;;;;;;5084395;28;20055;-63
2023/03/22 06:32:05;;;;;;;17.67;9.65;;;10.00;99.90;;;;;;5069065;28;20136;-64
2023/03/22 06:34:31;;;;;;;16.05;10.27;;;10.00;99.90;;;;;;5073281;28;20085;-65
2023/03/22 06:36:57;;;;;;;14.43;9.50;;;10.20;99.90;;;;;;5089694;28;20047;-62
2023/03/22 06:39:23;;;;;;;14.75;8.65;;;10.10;99.90;;;;;;5085823;28;20256;-63
2023/03/22 06:41:49;;;;;;;14.90;8.98;;;10.30;99.90;;;;;;5084174;28;20804;-63
2023/03/22 06:44:15;;;;;;;14.70;8.73;;;10.30;99.90;;;;;;5083560;28;20050;-64
2023/03/22 06:46:41;;;;;;;18.70;9.77;;;10.50;99.90;;;;;;5087837;28;20108;-67
2023/03/22 06:49:06;;;;;;;17.05;9.65;;;10.60;99.90;;;;;;5087865;28;20051;-64
2023/03/22 06:51:33;;;;;;;13.77;9.27;;;10.50;99.90;;;;;;5087950;28;20039;-66
2023/03/22 06:53:59;;;;;;;15.30;9.23;;;10.50;99.90;;;;;;5076718;28;20071;-65
2023/03/22 06:56:25;;;;;;;15.35;9.15;;;10.60;99.90;;;;;;5088314;28;20040;-65
2023/03/22 06:58:53;;;;;;;17.65;9.77;;;10.70;99.90;;;;;;5076868;28;20576;-64
2023/03/22 07:01:20;;;;;;;15.65;9.50;;;10.70;99.90;;;;;;5071900;28;20048;-66
2023/03/22 07:03:46;;;;;;;14.77;9.25;;;10.70;99.90;;;;;;5084680;28;20052;-66
2023/03/22 07:06:12;;;;;;;14.55;9.10;;;10.70;99.90;;;;;;5075475;28;20068;-65
2023/03/22 07:08:38;;;;;;;13.98;8.55;;;10.80;99.90;;;;;;5078476;28;20117;-63
2023/03/22 07:11:05;;;;;;;16.42;9.25;;;10.80;99.90;;;;;;5075278;28;20028;-65
2023/03/22 07:13:52;;;;;;;16.50;10.45;;;10.80;99.90;;;;;;5089302;28;20707;-63
2023/03/22 07:16:19;;;;;;;15.02;10.05;;;10.80;99.90;;;;;;5087603;28;20044;-64
2023/03/22 07:18:45;;;;;;;15.23;9.82;;;10.90;99.90;;;;;;5092563;28;20138;-63
2023/03/22 07:21:11;;;;;;;17.65;9.52;;;10.90;99.90;;;;;;5060173;28;20130;-63
2023/03/22 07:23:37;;;;;;;17.67;10.45;;;10.90;99.90;;;;;;5093685;28;20544;-63
2023/03/22 07:26:02;;;;;;;14.68;8.88;;;11.00;99.90;;;;;;5089210;28;20488;-64
2023/03/22 07:28:28;;;;;;;15.52;9.18;;;11.00;99.90;;;;;;5095339;28;20043;-63
2023/03/22 07:31:02;;;;;;;17.55;9.93;;;10.90;99.90;;;;;;5078535;28;20186;-64
2023/03/22 07:33:28;;;;;;;16.58;10.00;;;10.90;99.90;;;;;;5087309;28;20204;-63
2023/03/22 07:35:54;;;;;;;14.82;9.68;;;11.00;99.90;;;;;;5064922;28;20489;-63
2023/03/22 07:38:20;;;;;;;16.20;9.32;;;11.00;99.90;;;;;;5071224;28;20513;-64
2023/03/22 07:40:45;;;;;;;13.48;8.90;;;10.90;99.90;;;;;;5072553;28;20509;-65
2023/03/22 07:43:12;;;;;;;14.70;9.35;;;10.80;99.90;;;;;;5080564;28;20040;-63
2023/03/22 07:45:39;;;;;;;12.60;8.82;;;10.90;99.90;;;;;;5092639;28;20101;-65
2023/03/22 07:48:05;;;;;;;11.82;8.18;;;10.90;99.90;;;;;;5075186;28;20047;-64
2023/03/22 07:50:31;;;;;;;12.15;7.32;;;10.90;99.90;;;;;;5053873;28;20051;-64
2023/03/22 07:52:57;;;;;;;15.85;8.70;;;10.90;99.90;;;;;;5074180;28;20668;-64
2023/03/22 07:55:23;;;;;;;14.43;7.97;;;10.90;99.90;;;;;;5082316;28;20039;-64
2023/03/22 07:57:50;;;;;;;14.30;8.50;;;11.00;99.90;;;;;;5071999;28;20079;-66
2023/03/22 08:00:16;;;;;;;12.40;8.20;;;10.90;99.90;;;;;;5071129;28;20036;-65
2023/03/22 08:02:44;;;;;;;13.00;7.18;;;11.00;99.90;;;;;;5071321;28;20131;-65
2023/03/22 08:05:11;;;;;;;13.18;8.20;;;11.10;99.90;;;;;;5071661;28;20054;-65
2023/03/22 08:07:37;;;;;;;15.50;8.52;;;11.10;99.90;;;;;;5071407;28;20432;-66
2023/03/22 08:10:03;;;;;;;17.63;8.43;;;11.10;99.90;;;;;;5073873;28;20048;-66
2023/03/22 08:12:30;;;;;;;12.50;7.70;;;11.10;99.90;;;;;;5076039;28;20032;-65
2023/03/22 08:14:56;;;;;;;13.70;7.80;;;11.00;99.90;;;;;;5081437;28;20139;-66
2023/03/22 08:17:22;;;;;;;13.50;7.60;;;11.00;99.90;;;;;;5082319;28;20235;-64
2023/03/22 08:19:48;;;;;;;14.00;7.82;;;11.00;99.90;;;;;;5053477;28;20505;-66
2023/03/22 08:22:14;;;;;;;14.73;7.30;;;10.90;99.90;;;;;;5059326;28;20059;-65
2023/03/22 08:24:40;;;;;;;14.70;6.70;;;11.00;99.90;;;;;;5077239;28;20553;-65
2023/03/22 08:27:06;;;;;;;9.57;5.97;;;11.20;99.90;;;;;;5072390;28;20044;-65
2023/03/22 08:29:32;;;;;;;10.60;5.85;;;11.40;99.90;;;;;;5060438;28;20089;-65
2023/03/22 08:32:01;;;;;;;15.07;6.47;;;11.60;99.90;;;;;;5077225;28;20072;-66
2023/03/22 08:34:28;;;;;;;11.75;6.20;;;11.60;63.00;;;;;;5041204;28;20079;-63
2023/03/22 08:36:55;;;;;;;11.57;6.05;;;11.50;11.10;;;;;;5064812;28;20148;-65
2023/03/22 08:39:21;;;;;;;12.63;5.72;;;11.60;99.90;;;;;;5040776;28;20481;-65
2023/03/22 08:41:47;;;;;;;12.57;6.13;;;11.60;68.10;;;;;;5080920;28;20489;-65
2023/03/22 08:44:12;;;;;;;10.00;5.18;;;11.50;43.50;;;;;;5081581;28;20135;-66
2023/03/22 08:46:38;;;;;;;14.80;5.72;;;11.50;67.90;;;;;;5083040;28;20355;-65
2023/03/22 08:49:04;;;;;;;12.50;5.43;;;11.50;99.90;;;;;;5078301;28;20334;-64
2023/03/22 08:51:30;;;;;;;10.23;4.97;;;11.50;99.90;;;;;;5081556;28;20040;-64
2023/03/22 08:53:59;;;;;;;10.05;5.55;;;11.40;99.90;;;;;;5060174;28;20265;-66
2023/03/22 08:56:26;;;;;;;8.95;4.13;;;11.50;99.90;;;;;;5060867;28;20066;-66
2023/03/22 08:58:52;;;;;;;10.57;4.82;;;11.50;1.00;;;;;;5053078;28;20047;-66
2023/03/22 09:01:21;;;;;;;12.07;4.47;;;11.60;38.80;;;;;;5062236;28;20036;-65
2023/03/22 09:03:47;;;;;;;9.90;4.35;;;11.70;11.80;;;;;;5081644;28;20531;-65
2023/03/22 09:06:13;;;;;;;10.75;3.97;;;11.90;99.90;;;;;;5064618;28;20035;-64
2023/03/22 09:08:40;;;;;;;7.70;3.70;;;11.90;1.00;;;;;;5070565;28;20035;-64
2023/03/22 09:11:10;;;;;;;10.20;3.95;;;11.80;1.00;;;;;;5091867;28;20402;-63
2023/03/22 09:13:36;;;;;;;10.48;3.70;;;11.80;1.00;;;;;;5078192;28;20040;-66
2023/03/22 09:16:03;;;;;;;12.52;3.70;;;11.80;1.00;;;;;;5059195;28;20058;-66
2023/03/22 09:18:28;;;;;;;8.90;3.90;;;11.90;1.90;;;;;;5078120;28;20043;-65
2023/03/22 09:20:54;;;;;;;11.63;3.58;;;12.00;46.30;;;;;;5046057;28;20044;-65
2023/03/22 09:23:20;;;;;;;10.50;3.53;;;12.00;1.00;;;;;;5086270;28;20108;-65
2023/03/22 09:25:47;;;;;;;8.52;2.42;;;12.10;32.10;;;;;;5060485;28;20212;-65
2023/03/22 09:28:13;;;;;;;8.07;2.90;;;12.10;1.00;;;;;;5083058;28;20094;-65
2023/03/22 09:30:39;;;;;;;10.43;3.50;;;12.00;1.00;;;;;;5078360;28;20044;-66
2023/03/22 09:33:05;;;;;;;8.82;3.20;;;12.00;1.00;;;;;;5090120;28;20567;-67
2023/03/22 09:35:32;;;;;;;11.57;3.25;;;12.00;1.00;;;;;;5056515;28;20369;-66
2023/03/22 09:37:58;;;;;;;7.13;3.00;;;12.00;22.70;;;;;;5076231;28;20058;-64
2023/03/22 09:40:28;;;;;;;9.60;3.00;;;12.00;1.00;;;;;;5083735;28;20054;-65
2023/03/22 09:42:56;;;;;;;8.25;2.40;;;11.90;1.00;;;;;;5080674;28;20721;-63
2023/03/22 09:45:39;;;;;;;9.27;2.92;;;11.90;1.00;;;;;;5082005;28;20035;-64
2023/03/22 09:48:13;;;;;;;9.52;2.65;;;11.90;1.00;;;;;;5078764;28;20093;-65
2023/03/22 09:50:46;;;;;;;7.85;2.53;;;11.90;4.10;;;;;;5095038;28;20431;-64
2023/03/22 09:53:14;;;;;;;10.88;2.78;;;11.90;1.00;;;;;;5066243;28;20054;-64
2023/03/22 09:55:52;;;;;;;7.35;2.17;;;12.00;1.00;;;;;;5074649;28;20130;-64
2023/03/22 09:58:27;;;;;;;7.43;1.92;;;12.00;1.00;;;;;;5060285;28;20509;-64
2023/03/22 10:01:18;;;;;;;5.50;2.38;;;12.10;1.00;;;;;;5094689;28;20041;-63
2023/03/22 10:03:53;;;;;;;9.98;2.50;;;11.90;1.00;;;;;;5094891;28;20151;-64
2023/03/22 10:06:24;;;;;;;11.52;2.80;;;11.90;1.00;;;;;;5075424;28;20101;-63
2023/03/22 10:08:54;;;;;;;7.05;1.67;;;11.90;8.00;;;;;;5060615;28;20039;-63
2023/03/22 10:11:26;;;;;;;10.93;2.42;;;11.90;1.00;;;;;;5082242;28;20130;-63
2023/03/22 10:14:28;;;;;;;8.27;2.25;;;11.90;1.00;;;;;;5099893;27;20043;-64
2023/03/22 10:16:56;;;;;;;7.10;1.95;;;11.80;1.00;;;;;;5071762;28;20134;-63
2023/03/22 10:19:46;;;;;;;7.63;1.52;;;11.80;1.00;;;;;;5081079;28;20047;-65
2023/03/22 10:22:16;;;;;;;9.52;2.60;;;11.70;99.90;;;;;;5078842;28;20056;-67
2023/03/22 10:24:45;;;;;;;5.30;1.45;;;11.60;1.00;;;;;;5088160;28;20295;-65
2023/03/22 10:27:19;;;;;;;9.30;2.03;;;11.60;1.00;;;;;;5075720;28;20274;-66
2023/03/22 10:30:17;;;;;;;11.82;2.25;;;11.30;1.00;;;;;;5084637;28;20047;-66
2023/03/22 10:32:50;;;;;;;7.88;1.65;;;11.20;85.80;;;;;;5085907;28;20051;-65
2023/03/22 10:35:16;;;;;;;7.50;1.88;;;11.00;20.20;;;;;;5073265;28;20047;-64
2023/03/22 10:37:45;;;;;;;13.98;2.83;;;10.90;99.90;;;;;;5089576;28;20420;-65
2023/03/22 10:40:26;;;;;;;9.10;2.08;;;10.90;99.90;;;;;;5093785;27;20631;-65
2023/03/22 10:42:55;;;;;;;7.88;2.42;;;10.80;99.90;;;;;;5075676;28;20046;-65
2023/03/22 10:45:23;;;;;;;7.60;2.35;;;10.70;99.90;;;;;;5094272;28;20040;-65
2023/03/22 10:48:24;;;;;;;10.05;2.72;;;10.60;99.90;;;;;;5079137;28;20150;-65
2023/03/22 10:50:50;;;;;;;6.82;2.50;;;10.70;99.90;;;;;;5024256;28;20075;-66
2023/03/22 10:53:42;;;;;;;8.30;2.28;;;10.60;99.90;;;;;;5086004;28;20511;-65
2023/03/22 10:56:14;;;;;;;7.25;2.35;;;10.60;99.90;;;;;;5069005;28;20261;-66
2023/03/22 10:58:40;;;;;;;10.18;2.92;;;10.50;99.90;;;;;;5057145;28;20044;-66
2023/03/22 11:01:13;;;;;;;10.63;2.92;;;10.40;99.90;;;;;;5057977;28;20447;-66
2023/03/22 11:03:41;;;;;;;10.27;3.10;;;10.30;99.90;;;;;;5079358;28;20302;-66
2023/03/22 11:06:11;;;;;;;5.07;2.55;;;10.40;99.90;;;;;;5079325;28;20616;-66
2023/03/22 11:09:10;;;;;;;6.90;2.90;;;10.40;99.90;;;;;;5071773;28;20093;-65
2023/03/22 11:11:57;;;;;;;9.07;3.42;;;10.40;99.90;;;;;;5072004;28;20227;-66
2023/03/22 11:14:43;;;;;;;15.23;4.32;;;10.20;99.90;;;;;;5074756;28;20038;-65
2023/03/22 11:17:13;;;;;;;8.35;3.45;;;10.30;1.00;;;;;;5080082;28;20097;-64
2023/03/22 11:19:48;;;;;;;9.52;3.10;;;10.40;1.00;;;;;;5074637;28;20121;-64
2023/03/22 11:22:20;;;;;;;9.07;3.22;;;10.20;1.00;;;;;;5080790;28;20044;-66
2023/03/22 11:24:46;;;;;;;9.65;3.53;;;10.40;1.00;;;;;;5079904;28;20569;-65
2023/03/22 11:27:23;;;;;;;7.95;3.60;;;10.40;1.00;;;;;;5061816;28;20062;-67
2023/03/22 11:30:13;;;;;;;9.30;3.72;;;10.30;59.30;;;;;;5085181;28;20500;-66
2023/03/22 11:32:39;;;;;;;7.80;3.38;;;10.30;56.00;;;;;;5080562;28;20167;-64
2023/03/22 11:35:24;;;;;;;9.18;3.30;;;10.30;43.60;;;;;;5091995;28;20113;-67
2023/03/22 11:37:54;;;;;;;8.07;2.83;;;10.50;34.20;;;;;;5091664;28;20121;-65
2023/03/22 11:40:24;;;;;;;6.78;2.75;;;10.50;4.60;;;;;;5092014;28;20613;-65
2023/03/22 11:43:02;;;;;;;7.35;2.70;;;10.60;32.40;;;;;;5091673;28;20387;-65
2023/03/22 11:45:35;;;;;;;12.15;3.15;;;10.50;1.00;;;;;;5093314;28;20653;-65
2023/03/22 11:48:08;;;;;;;10.45;2.90;;;10.40;1.00;;;;;;5073278;28;20255;-66
2023/03/22 11:50:37;;;;;;;11.93;3.60;;;10.50;1.00;;;;;;5072102;28;20048;-64
2023/03/22 11:53:06;;;;;;;9.98;3.38;;;10.50;6.80;;;;;;5071799;28;20128;-66
2023/03/22 11:55:34;;;;;;;6.78;2.60;;;10.60;37.60;;;;;;5091886;28;20187;-64
2023/03/22 11:58:02;;;;;;;6.18;2.63;;;10.50;1.00;;;;;;5093332;28;20051;-65
2023/03/22 12:00:36;;;;;;;6.50;3.22;;;10.60;1.00;;;;;;5091389;28;20051;-64
2023/03/22 12:03:08;;;;;;;10.23;2.55;;;10.60;99.90;;;;;;5091104;28;20230;-65
2023/03/22 12:05:38;;;;;;;7.25;2.55;;;10.60;1.00;;;;;;5092228;28;20079;-64
2023/03/22 12:08:32;;;;;;;5.72;2.10;;;10.60;1.00;;;;;;5091418;28;20036;-65
2023/03/22 12:11:06;;;;;;;3.75;2.00;;;10.70;99.90;;;;;;5090391;28;20089;-66
2023/03/22 12:13:50;;;;;;;5.65;2.00;;;10.60;99.90;;;;;;5092733;28;20527;-65
2023/03/22 12:16:21;;;;;;;7.75;2.90;;;10.60;99.90;;;;;;5092847;28;20433;-65
2023/03/22 12:19:12;;;;;;;7.60;2.72;;;10.60;99.90;;;;;;5091383;28;20067;-64
2023/03/22 12:21:39;;;;;;;7.45;3.22;;;10.40;99.90;;;;;;5073023;28;20267;-66
2023/03/22 12:24:17;;;;;;;6.53;2.60;;;10.60;1.00;;;;;;5071934;28;20745;-66
2023/03/22 12:26:43;;;;;;;7.88;2.65;;;10.50;1.00;;;;;;5071361;28;20047;-65
2023/03/22 12:29:17;;;;;;;7.53;2.92;;;10.50;1.00;;;;;;5075619;28;20051;-64
2023/03/22 12:32:10;;;;;;;4.75;1.92;;;10.40;1.00;;;;;;5079666;28;20042;-63
2023/03/22 12:34:42;;;;;;;6.88;2.30;;;10.40;99.90;;;;;;5073319;28;20044;-65
2023/03/22 12:37:14;;;;;;;5.85;2.10;;;10.60;1.00;;;;;;5054919;28;20040;-63
2023/03/22 12:39:47;;;;;;;6.25;2.10;;;10.50;1.00;;;;;;5078554;28;20040;-63
2023/03/22 12:42:21;;;;;;;5.30;2.15;;;10.60;1.00;;;;;;5083895;28;20189;-63
2023/03/22 12:44:49;;;;;;;4.90;1.90;;;10.70;1.00;;;;;;5086475;28;20048;-64
2023/03/22 12:47:17;;;;;;;6.57;2.13;;;10.50;1.00;;;;;;5086231;28;20127;-62
2023/03/22 12:49:51;;;;;;;7.85;2.20;;;10.40;1.00;;;;;;5086731;28;20036;-62
2023/03/22 12:52:22;;;;;;;6.13;2.47;;;10.50;1.00;;;;;;5068243;28;20075;-64
2023/03/22 12:54:51;;;;;;;8.05;3.03;;;10.30;1.00;;;;;;5085150;28;20586;-62
2023/03/22 12:57:17;;;;;;;10.15;3.13;;;10.40;99.90;;;;;;5085311;28;20044;-62
2023/03/22 12:59:48;;;;;;;6.38;2.60;;;10.30;99.90;;;;;;5082691;28;20051;-65
2023/03/22 13:02:31;;;;;;;6.63;3.00;;;10.10;99.90;;;;;;5076395;28;20032;-64